sensor_id;sensor_type;location;lat;lon;timestamp;pressure;altitude;pressure_sealevel;temperature;humidity
75521;BME280;64102;48.628;9.002;2023-08-20T00:01:14;96478.44;;;19.34;100.00
75521;BME280;64102;48.628;9.002;2023-08-20T00:03:41;96488.63;;;19.29;100.00
75521;BME280;64102;48.628;9.002;2023-08-20T00:06:09;96487.03;;;19.28;100.00
75521;BME280;64102;48.628;9.002;2023-08-20T00:08:34;96482.91;;;19.19;100.00
75521;BME280;64102;48.628;9.002;2023-08-20T00:11:00;96483.50;;;19.21;100.00
75521;BME280;64102;48.628;9.002;2023-08-20T00:13:25;96486.75;;;19.23;100.00
75521;BME280;64102;48.628;9.002;2023-08-20T00:15:50;96491.63;;;19.26;100.00
75521;BME280;64102;48.628;9.002;2023-08-20T00:18:16;96491.91;;;19.31;100.00
75521;BME280;64102;48.628;9.002;2023-08-20T00:20:42;96488.63;;;19.29;100.00
75521;BME280;64102;48.628;9.002;2023-08-20T00:23:08;96490.81;;;19.26;100.00
75521;BME280;64102;48.628;9.002;2023-08-20T00:25:33;96490.81;;;19.26;100.00
75521;BME280;64102;48.628;9.002;2023-08-20T00:27:59;96494.78;;;19.21;100.00
75521;BME280;64102;48.628;9.002;2023-08-20T00:30:24;96493.53;;;19.17;100.00
75521;BME280;64102;48.628;9.002;2023-08-20T00:32:50;96493.25;;;19.12;100.00
75521;BME280;64102;48.628;9.002;2023-08-20T00:35:15;96496.03;;;19.11;100.00
75521;BME280;64102;48.628;9.002;2023-08-20T00:37:40;96493.81;;;19.08;100.00
75521;BME280;64102;48.628;9.002;2023-08-20T00:40:06;96494.19;;;19.05;100.00
75521;BME280;64102;48.628;9.002;2023-08-20T00:42:32;96488.66;;;19.00;100.00
75521;BME280;64102;48.628;9.002;2023-08-20T00:44:58;96497.06;;;18.95;100.00
75521;BME280;64102;48.628;9.002;2023-08-20T00:47:23;96494.06;;;18.98;100.00
75521;BME280;64102;48.628;9.002;2023-08-20T00:49:49;96495.88;;;18.98;100.00
75521;BME280;64102;48.628;9.002;2023-08-20T00:52:16;96500.03;;;18.92;100.00
75521;BME280;64102;48.628;9.002;2023-08-20T00:54:44;96497.16;;;18.87;100.00
75521;BME280;64102;48.628;9.002;2023-08-20T00:57:09;96498.31;;;18.85;100.00
75521;BME280;64102;48.628;9.002;2023-08-20T00:59:35;96491.00;;;18.80;100.00
75521;BME280;64102;48.628;9.002;2023-08-20T01:02:01;96503.44;;;18.78;100.00
75521;BME280;64102;48.628;9.002;2023-08-20T01:04:28;96503.63;;;18.76;100.00
75521;BME280;64102;48.628;9.002;2023-08-20T01:07:07;96498.56;;;18.75;100.00
75521;BME280;64102;48.628;9.002;2023-08-20T01:09:48;96495.31;;;18.73;100.00
75521;BME280;64102;48.628;9.002;2023-08-20T01:12:17;96494.50;;;18.72;100.00
75521;BME280;64102;48.628;9.002;2023-08-20T01:14:43;96495.22;;;18.66;100.00
75521;BME280;64102;48.628;9.002;2023-08-20T01:17:08;96501.47;;;18.65;100.00
75521;BME280;64102;48.628;9.002;2023-08-20T01:19:34;96500.81;;;18.63;100.00
75521;BME280;64102;48.628;9.002;2023-08-20T01:28:18;96497.22;;;18.64;100.00
75521;BME280;64102;48.628;9.002;2023-08-20T01:30:44;96503.44;;;18.63;100.00
75521;BME280;64102;48.628;9.002;2023-08-20T01:33:11;96506.69;;;18.65;100.00
75521;BME280;64102;48.628;9.002;2023-08-20T01:35:37;96505.69;;;18.66;100.00
75521;BME280;64102;48.628;9.002;2023-08-20T01:38:03;96508.28;;;18.66;100.00
75521;BME280;64102;48.628;9.002;2023-08-20T01:40:29;96500.81;;;18.63;100.00
75521;BME280;64102;48.628;9.002;2023-08-20T01:42:55;96498.38;;;18.62;100.00
75521;BME280;64102;48.628;9.002;2023-08-20T01:45:20;96502.53;;;18.56;100.00
75521;BME280;64102;48.628;9.002;2023-08-20T01:47:46;96504.00;;;18.51;100.00
75521;BME280;64102;48.628;9.002;2023-08-20T01:50:12;96496.34;;;18.49;100.00
75521;BME280;64102;48.628;9.002;2023-08-20T01:52:37;96494.91;;;18.47;100.00
75521;BME280;64102;48.628;9.002;2023-08-20T01:55:03;96499.31;;;18.46;100.00
75521;BME280;64102;48.628;9.002;2023-08-20T01:57:29;96499.31;;;18.46;100.00
75521;BME280;64102;48.628;9.002;2023-08-20T01:59:55;96500.47;;;18.44;100.00
75521;BME280;64102;48.628;9.002;2023-08-20T02:02:20;96499.69;;;18.43;100.00
75521;BME280;64102;48.628;9.002;2023-08-20T02:04:45;96504.41;;;18.40;100.00
75521;BME280;64102;48.628;9.002;2023-08-20T02:07:11;96502.81;;;18.39;100.00
75521;BME280;64102;48.628;9.002;2023-08-20T02:09:36;96507.03;;;18.40;100.00
75521;BME280;64102;48.628;9.002;2023-08-20T02:12:02;96497.22;;;18.42;100.00
75521;BME280;64102;48.628;9.002;2023-08-20T02:14:28;96506.88;;;18.41;100.00
75521;BME280;64102;48.628;9.002;2023-08-20T02:16:54;96510.13;;;18.43;100.00
75521;BME280;64102;48.628;9.002;2023-08-20T02:19:19;96504.09;;;18.43;100.00
75521;BME280;64102;48.628;9.002;2023-08-20T02:21:44;96508.81;;;18.39;100.00
75521;BME280;64102;48.628;9.002;2023-08-20T02:24:10;96511.94;;;18.43;100.00
75521;BME280;64102;48.628;9.002;2023-08-20T02:26:35;96515.41;;;18.35;100.00
75521;BME280;64102;48.628;9.002;2023-08-20T02:29:00;96502.69;;;18.32;100.00
75521;BME280;64102;48.628;9.002;2023-08-20T02:31:26;96509.44;;;18.26;100.00
75521;BME280;64102;48.628;9.002;2023-08-20T02:33:51;96501.78;;;18.25;100.00
75521;BME280;64102;48.628;9.002;2023-08-20T02:36:16;96501.50;;;18.20;100.00
75521;BME280;64102;48.628;9.002;2023-08-20T02:38:42;96509.66;;;18.17;100.00
75521;BME280;64102;48.628;9.002;2023-08-20T02:41:07;96503.66;;;18.16;100.00
75521;BME280;64102;48.628;9.002;2023-08-20T02:43:32;96507.25;;;18.15;100.00
75521;BME280;64102;48.628;9.002;2023-08-20T02:45:58;96510.84;;;18.14;100.00
75521;BME280;64102;48.628;9.002;2023-08-20T02:48:23;96519.19;;;18.10;100.00
75521;BME280;64102;48.628;9.002;2023-08-20T02:50:55;96515.59;;;18.11;100.00
75521;BME280;64102;48.628;9.002;2023-08-20T02:53:21;96509.44;;;18.04;100.00
75521;BME280;64102;48.628;9.002;2023-08-20T02:55:47;96500.81;;;18.03;100.00
75521;BME280;64102;48.628;9.002;2023-08-20T02:58:12;96512.41;;;18.01;100.00
75521;BME280;64102;48.628;9.002;2023-08-20T03:00:38;96512.41;;;18.01;100.00
75521;BME280;64102;48.628;9.002;2023-08-20T03:03:04;96517.63;;;18.01;100.00
75521;BME280;64102;48.628;9.002;2023-08-20T03:05:32;96514.03;;;18.02;100.00
75521;BME280;64102;48.628;9.002;2023-08-20T03:07:57;96507.19;;;18.01;100.00
75521;BME280;64102;48.628;9.002;2023-08-20T03:10:23;96502.59;;;18.03;100.00
75521;BME280;64102;48.628;9.002;2023-08-20T03:12:48;96497.72;;;18.00;100.00
75521;BME280;64102;48.628;9.002;2023-08-20T03:15:14;96494.13;;;18.01;100.00
75521;BME280;64102;48.628;9.002;2023-08-20T03:17:39;96499.00;;;18.04;100.00
75521;BME280;64102;48.628;9.002;2023-08-20T03:20:05;96498.00;;;18.05;100.00
75521;BME280;64102;48.628;9.002;2023-08-20T03:22:31;96496.22;;;18.05;100.00
75521;BME280;64102;48.628;9.002;2023-08-20T03:24:57;96499.78;;;18.12;100.00
75521;BME280;64102;48.628;9.002;2023-08-20T03:27:22;96499.56;;;18.14;100.00
75521;BME280;64102;48.628;9.002;2023-08-20T03:29:48;96493.75;;;18.04;100.00
75521;BME280;64102;48.628;9.002;2023-08-20T03:32:14;96493.31;;;18.00;100.00
75521;BME280;64102;48.628;9.002;2023-08-20T03:34:39;96489.13;;;17.91;100.00
75521;BME280;64102;48.628;9.002;2023-08-20T03:37:05;96485.44;;;17.85;100.00
75521;BME280;64102;48.628;9.002;2023-08-20T03:39:30;96490.69;;;17.77;100.00
75521;BME280;64102;48.628;9.002;2023-08-20T03:41:56;96482.75;;;17.71;100.00
75521;BME280;64102;48.628;9.002;2023-08-20T03:44:21;96476.53;;;17.95;100.00
75521;BME280;64102;48.628;9.002;2023-08-20T03:46:47;96484.44;;;17.86;100.00
75521;BME280;64102;48.628;9.002;2023-08-20T03:49:12;96488.06;;;17.77;100.00
75521;BME280;64102;48.628;9.002;2023-08-20T03:51:37;96481.72;;;17.80;100.00
75521;BME280;64102;48.628;9.002;2023-08-20T03:54:03;96485.97;;;17.81;100.00
75521;BME280;64102;48.628;9.002;2023-08-20T03:56:28;96479.41;;;17.85;100.00
75521;BME280;64102;48.628;9.002;2023-08-20T03:58:54;96477.41;;;17.87;100.00
75521;BME280;64102;48.628;9.002;2023-08-20T04:01:20;96478.59;;;17.84;100.00
75521;BME280;64102;48.628;9.002;2023-08-20T04:03:46;96479.84;;;17.88;100.00
75521;BME280;64102;48.628;9.002;2023-08-20T04:06:12;96479.84;;;17.88;100.00
75521;BME280;64102;48.628;9.002;2023-08-20T04:08:37;96485.91;;;17.89;100.00
75521;BME280;64102;48.628;9.002;2023-08-20T04:11:02;96488.16;;;17.92;100.00
75521;BME280;64102;48.628;9.002;2023-08-20T04:13:29;96494.53;;;17.89;100.00
75521;BME280;64102;48.628;9.002;2023-08-20T04:15:54;96490.75;;;17.92;100.00
75521;BME280;64102;48.628;9.002;2023-08-20T04:18:20;96493.53;;;17.90;100.00
75521;BME280;64102;48.628;9.002;2023-08-20T04:20:45;96494.94;;;17.78;100.00
75521;BME280;64102;48.628;9.002;2023-08-20T04:23:10;96491.22;;;17.73;100.00
75521;BME280;64102;48.628;9.002;2023-08-20T04:25:36;96494.81;;;17.72;100.00
75521;BME280;64102;48.628;9.002;2023-08-20T04:28:01;96491.91;;;17.67;100.00
75521;BME280;64102;48.628;9.002;2023-08-20T04:30:26;96500.75;;;17.58;100.00
75521;BME280;64102;48.628;9.002;2023-08-20T04:32:52;96494.75;;;17.49;100.00
75521;BME280;64102;48.628;9.002;2023-08-20T04:35:17;96506.47;;;17.53;100.00
75521;BME280;64102;48.628;9.002;2023-08-20T04:37:43;96512.97;;;17.57;100.00
75521;BME280;64102;48.628;9.002;2023-08-20T04:40:08;96512.03;;;17.58;100.00
75521;BME280;64102;48.628;9.002;2023-08-20T04:42:34;96517.88;;;17.60;100.00
75521;BME280;64102;48.628;9.002;2023-08-20T04:44:59;96511.31;;;17.64;100.00
75521;BME280;64102;48.628;9.002;2023-08-20T04:47:25;96528.75;;;17.72;100.00
75521;BME280;64102;48.628;9.002;2023-08-20T04:49:50;96530.19;;;17.74;100.00
75521;BME280;64102;48.628;9.002;2023-08-20T04:52:15;96533.28;;;17.78;100.00
75521;BME280;64102;48.628;9.002;2023-08-20T04:54:41;96529.84;;;17.77;100.00
75521;BME280;64102;48.628;9.002;2023-08-20T04:57:06;96540.13;;;17.79;100.00
75521;BME280;64102;48.628;9.002;2023-08-20T04:59:32;96528.75;;;17.95;100.00
75521;BME280;64102;48.628;9.002;2023-08-20T05:01:58;96521.81;;;18.10;100.00
75521;BME280;64102;48.628;9.002;2023-08-20T05:04:23;96517.47;;;18.02;100.00
75521;BME280;64102;48.628;9.002;2023-08-20T05:06:48;96514.97;;;18.09;100.00
75521;BME280;64102;48.628;9.002;2023-08-20T05:09:14;96510.91;;;18.06;100.00
75521;BME280;64102;48.628;9.002;2023-08-20T05:11:40;96510.75;;;18.08;100.00
75521;BME280;64102;48.628;9.002;2023-08-20T05:14:06;96505.97;;;18.34;100.00
75521;BME280;64102;48.628;9.002;2023-08-20T05:16:31;96497.31;;;18.48;100.00
75521;BME280;64102;48.628;9.002;2023-08-20T05:18:56;96502.38;;;18.50;100.00
75521;BME280;64102;48.628;9.002;2023-08-20T05:21:22;96501.50;;;18.57;100.00
75521;BME280;64102;48.628;9.002;2023-08-20T05:23:47;96508.94;;;18.68;100.00
75521;BME280;64102;48.628;9.002;2023-08-20T05:26:12;96523.38;;;18.79;100.00
75521;BME280;64102;48.628;9.002;2023-08-20T05:28:47;96527.56;;;18.88;100.00
75521;BME280;64102;48.628;9.002;2023-08-20T05:31:12;96526.72;;;19.02;100.00
75521;BME280;64102;48.628;9.002;2023-08-20T05:33:37;96533.31;;;19.13;100.00
75521;BME280;64102;48.628;9.002;2023-08-20T05:36:03;96530.16;;;19.32;100.00
75521;BME280;64102;48.628;9.002;2023-08-20T05:38:28;96534.50;;;19.54;100.00
75521;BME280;64102;48.628;9.002;2023-08-20T05:40:54;96529.75;;;19.79;100.00
75521;BME280;64102;48.628;9.002;2023-08-20T05:43:19;96538.09;;;20.04;100.00
75521;BME280;64102;48.628;9.002;2023-08-20T05:45:44;96540.19;;;20.15;100.00
75521;BME280;64102;48.628;9.002;2023-08-20T05:48:10;96545.16;;;20.46;100.00
75521;BME280;64102;48.628;9.002;2023-08-20T05:50:35;96539.72;;;20.47;100.00
75521;BME280;64102;48.628;9.002;2023-08-20T05:53:00;96537.88;;;20.69;100.00
75521;BME280;64102;48.628;9.002;2023-08-20T05:55:26;96544.53;;;20.93;100.00
75521;BME280;64102;48.628;9.002;2023-08-20T05:57:51;96540.47;;;21.18;100.00
75521;BME280;64102;48.628;9.002;2023-08-20T06:00:17;96539.63;;;21.52;100.00
75521;BME280;64102;48.628;9.002;2023-08-20T06:02:43;96537.31;;;21.83;100.00
75521;BME280;64102;48.628;9.002;2023-08-20T06:05:09;96547.97;;;22.16;100.00
75521;BME280;64102;48.628;9.002;2023-08-20T06:07:34;96548.00;;;22.43;100.00
75521;BME280;64102;48.628;9.002;2023-08-20T06:09:59;96546.59;;;22.66;100.00
75521;BME280;64102;48.628;9.002;2023-08-20T06:12:25;96557.97;;;22.80;100.00
75521;BME280;64102;48.628;9.002;2023-08-20T06:14:50;96554.72;;;22.78;100.00
75521;BME280;64102;48.628;9.002;2023-08-20T06:17:15;96549.63;;;23.09;100.00
75521;BME280;64102;48.628;9.002;2023-08-20T06:19:41;96544.22;;;23.62;99.39
75521;BME280;64102;48.628;9.002;2023-08-20T06:22:06;96548.88;;;23.67;99.75
75521;BME280;64102;48.628;9.002;2023-08-20T06:24:32;96550.16;;;23.44;100.00
75521;BME280;64102;48.628;9.002;2023-08-20T06:26:57;96549.97;;;23.52;100.00
75521;BME280;64102;48.628;9.002;2023-08-20T06:29:23;96566.38;;;24.05;99.51
75521;BME280;64102;48.628;9.002;2023-08-20T06:31:48;96559.78;;;24.28;97.52
75521;BME280;64102;48.628;9.002;2023-08-20T06:34:15;96556.19;;;24.47;97.42
75521;BME280;64102;48.628;9.002;2023-08-20T06:36:41;96557.84;;;24.98;91.37
75521;BME280;64102;48.628;9.002;2023-08-20T06:39:06;96554.63;;;25.14;93.90
75521;BME280;64102;48.628;9.002;2023-08-20T06:41:31;96552.72;;;25.64;88.37
75521;BME280;64102;48.628;9.002;2023-08-20T06:43:57;96553.47;;;26.01;88.18
75521;BME280;64102;48.628;9.002;2023-08-20T06:46:22;96556.69;;;26.21;88.23
75521;BME280;64102;48.628;9.002;2023-08-20T06:48:47;96565.78;;;26.55;82.12
75521;BME280;64102;48.628;9.002;2023-08-20T06:51:14;96565.50;;;26.86;81.94
75521;BME280;64102;48.628;9.002;2023-08-20T06:53:41;96561.47;;;27.07;80.08
75521;BME280;64102;48.628;9.002;2023-08-20T06:56:07;96567.81;;;27.52;75.41
75521;BME280;64102;48.628;9.002;2023-08-20T06:58:34;96566.06;;;27.70;74.63
75521;BME280;64102;48.628;9.002;2023-08-20T07:00:59;96565.19;;;27.92;75.58
75521;BME280;64102;48.628;9.002;2023-08-20T07:03:33;96566.69;;;27.48;74.78
75521;BME280;64102;48.628;9.002;2023-08-20T07:05:59;96572.28;;;27.64;75.18
75521;BME280;64102;48.628;9.002;2023-08-20T07:08:24;96572.84;;;28.17;72.30
75521;BME280;64102;48.628;9.002;2023-08-20T07:10:50;96567.38;;;27.95;72.83
75521;BME280;64102;48.628;9.002;2023-08-20T07:13:15;96562.75;;;27.91;72.34
75521;BME280;64102;48.628;9.002;2023-08-20T07:15:40;96572.94;;;28.51;73.78
75521;BME280;64102;48.628;9.002;2023-08-20T07:18:06;96572.13;;;28.78;69.18
75521;BME280;64102;48.628;9.002;2023-08-20T07:20:31;96581.38;;;28.92;70.42
75521;BME280;64102;48.628;9.002;2023-08-20T07:22:56;96586.81;;;28.13;72.19
75521;BME280;64102;48.628;9.002;2023-08-20T07:25:21;96587.94;;;27.88;73.24
75521;BME280;64102;48.628;9.002;2023-08-20T07:27:47;96587.56;;;28.36;71.25
75521;BME280;64102;48.628;9.002;2023-08-20T07:30:12;96593.69;;;28.82;68.93
75521;BME280;64102;48.628;9.002;2023-08-20T07:32:38;96595.22;;;28.95;67.65
75521;BME280;64102;48.628;9.002;2023-08-20T07:35:04;96595.00;;;29.51;67.56
75521;BME280;64102;48.628;9.002;2023-08-20T07:37:29;96600.53;;;30.05;61.90
75521;BME280;64102;48.628;9.002;2023-08-20T07:39:54;96603.31;;;30.15;62.15
75521;BME280;64102;48.628;9.002;2023-08-20T07:42:20;96600.63;;;29.71;63.74
75521;BME280;64102;48.628;9.002;2023-08-20T07:44:45;96606.41;;;29.13;65.02
75521;BME280;64102;48.628;9.002;2023-08-20T07:47:10;96601.91;;;29.30;64.97
75521;BME280;64102;48.628;9.002;2023-08-20T07:49:36;96593.13;;;28.97;64.65
75521;BME280;64102;48.628;9.002;2023-08-20T07:52:01;96591.69;;;29.61;63.94
75521;BME280;64102;48.628;9.002;2023-08-20T07:54:27;96603.59;;;29.75;63.54
75521;BME280;64102;48.628;9.002;2023-08-20T07:56:53;96599.13;;;29.59;63.01
75521;BME280;64102;48.628;9.002;2023-08-20T07:59:19;96605.91;;;29.88;62.89
75521;BME280;64102;48.628;9.002;2023-08-20T08:01:44;96603.81;;;30.12;58.45
75521;BME280;64102;48.628;9.002;2023-08-20T08:04:09;96600.84;;;30.84;56.36
75521;BME280;64102;48.628;9.002;2023-08-20T08:06:35;96606.44;;;30.34;58.60
75521;BME280;64102;48.628;9.002;2023-08-20T08:09:19;96604.47;;;30.46;59.21
75521;BME280;64102;48.628;9.002;2023-08-20T08:11:45;96599.75;;;30.80;58.88
75521;BME280;64102;48.628;9.002;2023-08-20T08:14:10;96609.47;;;30.96;59.08
75521;BME280;64102;48.628;9.002;2023-08-20T08:16:37;96612.94;;;31.28;57.13
75521;BME280;64102;48.628;9.002;2023-08-20T08:19:02;96622.63;;;31.02;58.29
75521;BME280;64102;48.628;9.002;2023-08-20T08:21:27;96618.00;;;31.25;55.14
75521;BME280;64102;48.628;9.002;2023-08-20T08:23:53;96615.03;;;31.58;54.34
75521;BME280;64102;48.628;9.002;2023-08-20T08:26:18;96619.31;;;31.27;53.49
75521;BME280;64102;48.628;9.002;2023-08-20T08:28:43;96616.88;;;31.21;55.70
75521;BME280;64102;48.628;9.002;2023-08-20T08:31:09;96611.34;;;31.69;54.06
75521;BME280;64102;48.628;9.002;2023-08-20T08:33:34;96617.50;;;32.37;52.50
75521;BME280;64102;48.628;9.002;2023-08-20T08:35:59;96612.75;;;32.54;51.17
75521;BME280;64102;48.628;9.002;2023-08-20T08:38:25;96612.25;;;32.62;50.47
75521;BME280;64102;48.628;9.002;2023-08-20T08:40:50;96612.50;;;32.61;47.65
75521;BME280;64102;48.628;9.002;2023-08-20T08:43:18;96610.06;;;32.59;47.17
75521;BME280;64102;48.628;9.002;2023-08-20T08:45:46;96619.53;;;33.12;47.22
75521;BME280;64102;48.628;9.002;2023-08-20T08:48:14;96617.84;;;32.61;49.10
75521;BME280;64102;48.628;9.002;2023-08-20T08:50:40;96607.88;;;32.31;48.83
75521;BME280;64102;48.628;9.002;2023-08-20T08:53:06;96609.19;;;32.23;48.29
75521;BME280;64102;48.628;9.002;2023-08-20T08:55:31;96614.41;;;32.75;48.75
75521;BME280;64102;48.628;9.002;2023-08-20T08:57:57;96620.03;;;32.89;47.14
75521;BME280;64102;48.628;9.002;2023-08-20T09:00:22;96613.34;;;33.32;44.47
75521;BME280;64102;48.628;9.002;2023-08-20T09:02:47;96613.84;;;33.59;43.30
75521;BME280;64102;48.628;9.002;2023-08-20T09:05:13;96619.81;;;33.21;43.57
75521;BME280;64102;48.628;9.002;2023-08-20T09:07:43;96622.94;;;33.58;40.74
75521;BME280;64102;48.628;9.002;2023-08-20T09:10:10;96620.59;;;34.31;41.04
75521;BME280;64102;48.628;9.002;2023-08-20T09:12:35;96617.06;;;33.56;40.65
75521;BME280;64102;48.628;9.002;2023-08-20T09:15:01;96617.06;;;33.66;39.63
75521;BME280;64102;48.628;9.002;2023-08-20T09:17:27;96620.78;;;33.76;40.42
75521;BME280;64102;48.628;9.002;2023-08-20T09:19:55;96615.38;;;34.55;39.68
75521;BME280;64102;48.628;9.002;2023-08-20T09:22:21;96614.94;;;33.48;41.39
75521;BME280;64102;48.628;9.002;2023-08-20T09:24:56;96611.56;;;34.12;38.42
75521;BME280;64102;48.628;9.002;2023-08-20T09:27:23;96621.75;;;34.69;38.99
75521;BME280;64102;48.628;9.002;2023-08-20T09:29:54;96617.84;;;35.24;36.78
75521;BME280;64102;48.628;9.002;2023-08-20T09:32:27;96615.63;;;35.60;36.58
75521;BME280;64102;48.628;9.002;2023-08-20T09:34:55;96616.50;;;36.03;34.13
75521;BME280;64102;48.628;9.002;2023-08-20T09:37:22;96614.31;;;35.29;35.90
75521;BME280;64102;48.628;9.002;2023-08-20T09:39:48;96618.56;;;34.03;38.01
75521;BME280;64102;48.628;9.002;2023-08-20T09:42:15;96624.25;;;33.81;38.14
75521;BME280;64102;48.628;9.002;2023-08-20T09:44:42;96628.28;;;34.48;37.36
75521;BME280;64102;48.628;9.002;2023-08-20T09:47:10;96624.97;;;34.66;38.39
75521;BME280;64102;48.628;9.002;2023-08-20T09:49:47;96620.72;;;35.67;37.54
75521;BME280;64102;48.628;9.002;2023-08-20T09:52:17;96617.38;;;35.75;35.08
75521;BME280;64102;48.628;9.002;2023-08-20T09:55:09;96619.13;;;34.54;36.97
75521;BME280;64102;48.628;9.002;2023-08-20T09:57:41;96612.41;;;36.11;36.63
75521;BME280;64102;48.628;9.002;2023-08-20T10:00:10;96610.22;;;36.55;35.35
75521;BME280;64102;48.628;9.002;2023-08-20T10:02:36;96611.63;;;35.58;37.69
75521;BME280;64102;48.628;9.002;2023-08-20T10:05:04;96609.91;;;36.19;35.78
75521;BME280;64102;48.628;9.002;2023-08-20T10:07:30;96607.44;;;35.75;37.36
75521;BME280;64102;48.628;9.002;2023-08-20T10:10:00;96611.56;;;36.15;36.19
75521;BME280;64102;48.628;9.002;2023-08-20T10:12:29;96604.59;;;36.52;36.52
75521;BME280;64102;48.628;9.002;2023-08-20T10:14:59;96600.97;;;36.43;35.33
75521;BME280;64102;48.628;9.002;2023-08-20T10:17:24;96608.41;;;35.84;35.03
75521;BME280;64102;48.628;9.002;2023-08-20T10:19:52;96616.56;;;36.22;34.40
75521;BME280;64102;48.628;9.002;2023-08-20T10:22:18;96606.28;;;36.05;38.53
75521;BME280;64102;48.628;9.002;2023-08-20T10:24:51;96604.56;;;37.27;34.82
75521;BME280;64102;48.628;9.002;2023-08-20T10:27:28;96604.03;;;37.25;33.90
75521;BME280;64102;48.628;9.002;2023-08-20T10:29:54;96607.97;;;37.46;33.26
75521;BME280;64102;48.628;9.002;2023-08-20T10:32:20;96601.41;;;38.34;32.34
75521;BME280;64102;48.628;9.002;2023-08-20T10:34:50;96595.97;;;37.84;33.05
75521;BME280;64102;48.628;9.002;2023-08-20T10:37:26;96597.66;;;37.67;34.47
75521;BME280;64102;48.628;9.002;2023-08-20T10:39:55;96598.47;;;37.35;34.37
75521;BME280;64102;48.628;9.002;2023-08-20T10:45:07;96604.88;;;35.60;40.29
75521;BME280;64102;48.628;9.002;2023-08-20T10:47:45;96603.88;;;36.04;41.42
75521;BME280;64102;48.628;9.002;2023-08-20T10:50:17;96596.19;;;37.42;36.69
75521;BME280;64102;48.628;9.002;2023-08-20T10:52:55;96604.91;;;37.52;35.77
75521;BME280;64102;48.628;9.002;2023-08-20T10:55:23;96611.13;;;37.67;36.83
75521;BME280;64102;48.628;9.002;2023-08-20T10:57:56;96603.94;;;37.62;38.53
75521;BME280;64102;48.628;9.002;2023-08-20T11:00:27;96596.06;;;38.06;37.62
75521;BME280;64102;48.628;9.002;2023-08-20T11:02:53;96598.22;;;38.32;34.97
75521;BME280;64102;48.628;9.002;2023-08-20T11:05:20;96596.63;;;38.31;36.05
75521;BME280;64102;48.628;9.002;2023-08-20T11:07:49;96600.56;;;39.19;35.60
75521;BME280;64102;48.628;9.002;2023-08-20T11:10:15;96596.16;;;39.54;32.59
75521;BME280;64102;48.628;9.002;2023-08-20T11:12:42;96591.88;;;38.86;35.93
75521;BME280;64102;48.628;9.002;2023-08-20T11:15:09;96592.75;;;40.27;31.68
75521;BME280;64102;48.628;9.002;2023-08-20T11:17:34;96592.22;;;40.08;31.95
75521;BME280;64102;48.628;9.002;2023-08-20T11:20:00;96589.91;;;40.49;31.02
75521;BME280;64102;48.628;9.002;2023-08-20T11:22:27;96594.19;;;38.92;34.13
75521;BME280;64102;48.628;9.002;2023-08-20T11:24:52;96587.41;;;37.22;36.31
75521;BME280;64102;48.628;9.002;2023-08-20T11:27:17;96592.03;;;37.90;34.96
75521;BME280;64102;48.628;9.002;2023-08-20T11:29:43;96590.97;;;38.05;33.89
75521;BME280;64102;48.628;9.002;2023-08-20T11:32:09;96584.84;;;38.27;34.08
75521;BME280;64102;48.628;9.002;2023-08-20T11:34:34;96589.84;;;37.92;35.63
75521;BME280;64102;48.628;9.002;2023-08-20T11:37:01;96584.22;;;38.57;35.08
75521;BME280;64102;48.628;9.002;2023-08-20T11:39:26;96585.34;;;39.01;32.96
75521;BME280;64102;48.628;9.002;2023-08-20T11:41:54;96586.50;;;39.30;32.23
75521;BME280;64102;48.628;9.002;2023-08-20T11:44:20;96582.44;;;39.42;32.66
75521;BME280;64102;48.628;9.002;2023-08-20T11:46:51;96580.38;;;40.43;30.87
75521;BME280;64102;48.628;9.002;2023-08-20T11:49:16;96573.88;;;40.79;29.73
75521;BME280;64102;48.628;9.002;2023-08-20T11:51:47;96577.75;;;40.04;30.21
75521;BME280;64102;48.628;9.002;2023-08-20T11:54:17;96573.84;;;40.36;29.29
75521;BME280;64102;48.628;9.002;2023-08-20T11:56:44;96574.63;;;40.96;30.68
75521;BME280;64102;48.628;9.002;2023-08-20T11:59:11;96571.59;;;40.29;31.94
75521;BME280;64102;48.628;9.002;2023-08-20T12:01:37;96569.25;;;40.71;29.37
75521;BME280;64102;48.628;9.002;2023-08-20T12:04:04;96563.69;;;40.84;30.93
75521;BME280;64102;48.628;9.002;2023-08-20T12:06:29;96570.34;;;39.17;32.42
75521;BME280;64102;48.628;9.002;2023-08-20T12:08:56;96567.69;;;37.95;34.19
75521;BME280;64102;48.628;9.002;2023-08-20T12:11:29;96561.31;;;37.78;35.91
75521;BME280;64102;48.628;9.002;2023-08-20T12:13:55;96559.88;;;37.39;35.77
75521;BME280;64102;48.628;9.002;2023-08-20T12:16:22;96560.41;;;37.82;34.56
75521;BME280;64102;48.628;9.002;2023-08-20T12:18:48;96559.44;;;39.00;32.23
75521;BME280;64102;48.628;9.002;2023-08-20T12:21:15;96559.09;;;38.92;32.37
75521;BME280;64102;48.628;9.002;2023-08-20T12:23:40;96546.47;;;40.63;29.47
75521;BME280;64102;48.628;9.002;2023-08-20T12:26:06;96555.19;;;39.07;33.39
75521;BME280;64102;48.628;9.002;2023-08-20T12:28:33;96555.47;;;39.28;32.20
75521;BME280;64102;48.628;9.002;2023-08-20T12:30:58;96547.75;;;39.13;32.38
75521;BME280;64102;48.628;9.002;2023-08-20T12:33:23;96542.53;;;37.73;34.81
75521;BME280;64102;48.628;9.002;2023-08-20T12:35:49;96552.78;;;35.61;37.05
75521;BME280;64102;48.628;9.002;2023-08-20T12:38:15;96551.53;;;37.41;33.86
75521;BME280;64102;48.628;9.002;2023-08-20T12:40:40;96546.00;;;36.49;36.96
75521;BME280;64102;48.628;9.002;2023-08-20T12:43:06;96541.56;;;36.58;36.54
75521;BME280;64102;48.628;9.002;2023-08-20T12:45:31;96545.97;;;34.48;41.69
75521;BME280;64102;48.628;9.002;2023-08-20T12:47:56;96540.50;;;36.59;36.59
75521;BME280;64102;48.628;9.002;2023-08-20T12:50:22;96538.84;;;37.28;34.43
75521;BME280;64102;48.628;9.002;2023-08-20T12:52:47;96536.56;;;37.02;36.67
75521;BME280;64102;48.628;9.002;2023-08-20T12:55:14;96536.53;;;37.35;36.54
75521;BME280;64102;48.628;9.002;2023-08-20T12:57:53;96534.41;;;39.08;31.49
75521;BME280;64102;48.628;9.002;2023-08-20T13:00:19;96538.75;;;39.48;33.53